Time;durP1;ratioP1;P1;durP2;ratioP2;P2;SDS_P1;SDS_P2;PMS_P1;PMS_P2;Temp;Humidity;BMP_temperature;BMP_pressure;BME280_temperature;BME280_humidity;BME280_pressure;Samples;Min_cycle;Max_cycle;Signal;HPM_P1;HPM_P2
2022/12/11 00:02:05;;;;;;;;;;;0.00;91.20;;;;;;5038894;28;20367;-77
2022/12/11 00:04:30;;;;;;;;;;;0.00;91.20;;;;;;5019837;28;20000;-76
2022/12/11 00:06:56;;;;;;;;;;;0.00;91.20;;;;;;5026124;28;19921;-76
2022/12/11 00:09:21;;;;;;;;;;;-0.10;91.20;;;;;;5023781;28;20004;-75
2022/12/11 00:11:47;;;;;;;;;;;-0.10;90.90;;;;;;5018239;28;20419;-77
2022/12/11 00:14:13;;;;;;;;;;;-0.10;91.20;;;;;;5021925;28;19925;-76
2022/12/11 00:16:38;;;;;;;;;;;-0.10;91.20;;;;;;5027516;28;19917;-75
2022/12/11 00:19:06;;;;;;;;;;;-0.10;91.20;;;;;;5022026;28;20022;-77
2022/12/11 00:21:42;;;;;;;;;;;-0.10;91.20;;;;;;5010707;28;19928;-77
2022/12/11 00:27:15;;;;;;;;;;;-0.10;91.20;;;;;;5188815;22;20306;-77
2022/12/11 00:29:40;;;;;;;;;;;-0.20;91.20;;;;;;5016822;28;19939;-76
2022/12/11 00:32:08;;;;;;;;;;;-0.10;91.20;;;;;;5052768;28;19916;-78
2022/12/11 00:34:34;;;;;;;;;;;-0.20;91.20;;;;;;5023721;28;19913;-76
2022/12/11 00:36:59;;;;;;;;;;;-0.20;91.20;;;;;;5038965;28;19924;-77
2022/12/11 00:39:25;;;;;;;;;;;-0.20;91.20;;;;;;5037982;28;20438;-76
2022/12/11 00:41:50;;;;;;;;;;;-0.20;91.20;;;;;;5050254;28;19934;-77
2022/12/11 00:44:15;;;;;;;;;;;-0.20;91.20;;;;;;5042060;28;19962;-78
2022/12/11 00:46:41;;;;;;;;;;;-0.30;91.20;;;;;;5022864;28;19921;-78
2022/12/11 00:49:06;;;;;;;;;;;-0.30;91.20;;;;;;5036529;28;20020;-78
2022/12/11 00:51:32;;;;;;;;;;;-0.30;91.20;;;;;;5040056;28;19921;-78
2022/12/11 00:53:57;;;;;;;;;;;-0.30;91.20;;;;;;5034150;28;19917;-77
2022/12/11 00:56:24;;;;;;;;;;;-0.20;91.30;;;;;;5034989;28;19937;-78
2022/12/11 00:58:49;;;;;;;;;;;-0.20;91.30;;;;;;5040157;28;19960;-77
2022/12/11 01:01:19;;;;;;;;;;;-0.30;91.30;;;;;;5035664;28;19971;-78
2022/12/11 01:03:44;;;;;;;;;;;-0.30;91.30;;;;;;5031546;28;20430;-78
2022/12/11 01:06:20;;;;;;;;;;;-0.30;91.30;;;;;;5037195;28;19917;-76
2022/12/11 01:08:45;;;;;;;;;;;-0.20;91.30;;;;;;5035937;28;19921;-76
2022/12/11 01:11:12;;;;;;;;;;;-0.30;91.30;;;;;;5035476;28;19917;-78
2022/12/11 01:13:37;;;;;;;;;;;-0.20;91.30;;;;;;5034968;28;19924;-78
2022/12/11 01:16:07;;;;;;;;;;;-0.20;91.30;;;;;;5036826;28;20428;-77
2022/12/11 01:18:32;;;;;;;;;;;-0.20;91.30;;;;;;5037029;28;19975;-77
2022/12/11 01:20:58;;;;;;;;;;;-0.30;91.30;;;;;;5036181;28;20027;-78
2022/12/11 01:23:23;;;;;;;;;;;-0.30;91.10;;;;;;5034543;28;19918;-78
2022/12/11 01:25:49;;;;;;;;;;;-0.30;91.30;;;;;;5032448;28;19921;-78
2022/12/11 01:28:14;;;;;;;;;;;-0.20;91.30;;;;;;5033413;28;19953;-78
2022/12/11 01:30:40;;;;;;;;;;;-0.30;91.30;;;;;;5040375;28;19925;-77
2022/12/11 01:33:06;;;;;;;;;;;-0.30;91.30;;;;;;5037318;28;19924;-78
2022/12/11 01:35:31;;;;;;;;;;;-0.20;91.30;;;;;;5034058;28;20082;-77
2022/12/11 01:37:58;;;;;;;;;;;-0.20;91.30;;;;;;5048846;28;19921;-77
2022/12/11 01:40:23;;;;;;;;;;;-0.20;91.30;;;;;;5044982;28;19917;-77
2022/12/11 01:42:49;;;;;;;;;;;-0.20;91.30;;;;;;5037710;28;19917;-77
2022/12/11 01:45:20;;;;;;;;;;;-0.20;91.30;;;;;;5043247;28;19917;-78
2022/12/11 01:47:48;;;;;;;;;;;-0.20;91.30;;;;;;5037001;28;19943;-78
2022/12/11 01:50:14;;;;;;;;;;;-0.10;91.40;;;;;;5045929;28;20391;-77
2022/12/11 01:52:39;;;;;;;;;;;-0.10;91.30;;;;;;5043668;28;19968;-77
2022/12/11 01:55:05;;;;;;;;;;;-0.10;91.30;;;;;;5044385;28;20367;-77
2022/12/11 01:57:30;;;;;;;;;;;-0.10;91.30;;;;;;5040151;28;19925;-77
2022/12/11 01:59:56;;;;;;;;;;;-0.10;91.30;;;;;;5038553;28;19925;-77
2022/12/11 02:02:23;;;;;;;;;;;-0.10;91.30;;;;;;5040564;28;19928;-76
2022/12/11 02:04:48;;;;;;;;;;;-0.10;91.30;;;;;;5035150;28;19925;-77
2022/12/11 02:07:14;;;;;;;;;;;-0.10;91.30;;;;;;5034413;28;20626;-77
2022/12/11 02:09:40;;;;;;;;;;;-0.10;91.30;;;;;;5035762;28;20297;-77
2022/12/11 02:12:08;;;;;;;;;;;0.00;91.30;;;;;;5040265;28;19948;-78
2022/12/11 02:14:34;;;;;;;;;;;0.00;91.30;;;;;;5037050;28;20119;-76
2022/12/11 02:17:00;;;;;;;;;;;0.00;91.30;;;;;;5038361;28;19948;-77
2022/12/11 02:19:45;;;;;;;;;;;0.00;91.30;;;;;;5034707;28;19928;-77
2022/12/11 02:22:12;;;;;;;;;;;0.00;91.30;;;;;;5036731;28;19928;-77
2022/12/11 02:24:42;;;;;;;;;;;0.00;91.30;;;;;;5032085;28;19925;-77
2022/12/11 02:27:26;;;;;;;;;;;0.00;91.30;;;;;;5025265;28;19925;-75
2022/12/11 02:30:05;;;;;;;;;;;0.00;91.30;;;;;;5029522;28;19929;-78
2022/12/11 02:32:37;;;;;;;;;;;0.00;91.30;;;;;;5026165;28;20008;-78
2022/12/11 02:35:22;;;;;;;;;;;0.00;91.30;;;;;;5031206;28;19921;-77
2022/12/11 02:37:49;;;;;;;;;;;0.00;91.30;;;;;;5030983;28;20011;-77
2022/12/11 02:40:16;;;;;;;;;;;0.00;91.30;;;;;;5034248;28;19935;-78
2022/12/11 02:42:42;;;;;;;;;;;0.10;91.30;;;;;;5033884;28;19983;-77
2022/12/11 02:45:08;;;;;;;;;;;0.00;91.30;;;;;;5035728;28;19987;-76
2022/12/11 02:47:33;;;;;;;;;;;0.00;91.30;;;;;;5050839;28;19923;-78
2022/12/11 02:49:59;;;;;;;;;;;0.00;91.30;;;;;;5037144;28;19924;-77
2022/12/11 02:52:25;;;;;;;;;;;0.00;91.30;;;;;;5038680;28;19918;-77
2022/12/11 02:54:51;;;;;;;;;;;0.00;91.30;;;;;;5036036;28;20536;-77
2022/12/11 02:57:16;;;;;;;;;;;0.00;91.30;;;;;;5033755;28;19921;-77
2022/12/11 02:59:42;;;;;;;;;;;0.00;91.30;;;;;;5035138;28;19986;-77
2022/12/11 03:02:08;;;;;;;;;;;0.00;91.30;;;;;;5029926;28;19929;-77
2022/12/11 03:04:34;;;;;;;;;;;0.00;91.30;;;;;;5040244;28;19925;-77
2022/12/11 03:07:10;;;;;;;;;;;0.00;91.30;;;;;;5033650;28;19916;-76
2022/12/11 03:09:39;;;;;;;;;;;0.00;91.30;;;;;;5030788;28;19933;-77
2022/12/11 03:12:05;;;;;;;;;;;0.00;91.30;;;;;;5032409;28;19917;-77
2022/12/11 03:14:31;;;;;;;;;;;0.00;91.30;;;;;;5031376;28;20016;-77
2022/12/11 03:17:04;;;;;;;;;;;0.00;91.30;;;;;;5039558;28;20433;-77
2022/12/11 03:19:34;;;;;;;;;;;0.00;91.20;;;;;;5038993;28;19962;-77
2022/12/11 03:22:07;;;;;;;;;;;0.00;91.20;;;;;;5043546;28;19933;-75
2022/12/11 03:24:46;;;;;;;;;;;0.00;91.20;;;;;;5034826;28;19921;-75
2022/12/11 03:27:18;;;;;;;;;;;0.00;91.20;;;;;;5043618;28;19955;-77
2022/12/11 03:29:47;;;;;;;;;;;-0.10;91.20;;;;;;5043433;28;19921;-77
2022/12/11 03:32:13;;;;;;;;;;;0.00;91.20;;;;;;5040663;28;20006;-77
2022/12/11 03:34:43;;;;;;;;;;;-0.10;91.20;;;;;;5039857;28;19917;-78
2022/12/11 03:37:09;;;;;;;;;;;-0.10;91.20;;;;;;5034842;28;19923;-77
2022/12/11 03:39:35;;;;;;;;;;;-0.10;91.20;;;;;;5044158;28;19929;-77
2022/12/11 03:42:01;;;;;;;;;;;-0.10;91.20;;;;;;5044855;28;20442;-78
2022/12/11 03:44:27;;;;;;;;;;;-0.10;91.20;;;;;;5040851;28;19952;-78
2022/12/11 03:46:53;;;;;;;;;;;-0.10;91.20;;;;;;5038033;28;19921;-77
2022/12/11 03:49:20;;;;;;;;;;;-0.10;91.20;;;;;;5026351;28;19928;-77
2022/12/11 03:51:45;;;;;;;;;;;-0.10;91.20;;;;;;5043322;28;19925;-78
2022/12/11 03:54:11;;;;;;;;;;;-0.10;91.20;;;;;;5038555;28;19996;-77
2022/12/11 03:56:36;;;;;;;;;;;-0.10;91.20;;;;;;5035237;28;20333;-78
2022/12/11 03:59:02;;;;;;;;;;;-0.10;91.20;;;;;;5042978;28;20411;-78
2022/12/11 04:01:27;;;;;;;;;;;-0.10;91.20;;;;;;5041622;28;19936;-77
2022/12/11 04:03:53;;;;;;;;;;;-0.10;91.30;;;;;;5038303;28;20424;-77
2022/12/11 04:06:18;;;;;;;;;;;-0.10;91.30;;;;;;5037304;28;19925;-77
2022/12/11 04:08:44;;;;;;;;;;;-0.10;91.30;;;;;;5040626;28;20362;-77
2022/12/11 04:16:38;;;;;;;;;;;-0.10;91.20;;;;;;5039870;28;20448;-77
2022/12/11 04:24:31;;;;;;;;;;;-0.10;91.30;;;;;;5035994;28;20039;-78
2022/12/11 04:26:57;;;;;;;;;;;-0.10;91.20;;;;;;5038326;28;20566;-78
2022/12/11 04:29:22;;;;;;;;;;;-0.20;91.20;;;;;;5024198;28;19929;-77
2022/12/11 04:31:49;;;;;;;;;;;-0.10;91.20;;;;;;5039945;28;19952;-78
2022/12/11 04:34:15;;;;;;;;;;;-0.20;91.20;;;;;;5036520;28;19928;-77
2022/12/11 04:36:40;;;;;;;;;;;-0.10;91.20;;;;;;5034961;28;19921;-77
2022/12/11 04:39:06;;;;;;;;;;;-0.20;91.20;;;;;;5039088;28;20327;-77
2022/12/11 04:41:31;;;;;;;;;;;-0.20;91.20;;;;;;5037779;28;20720;-78
2022/12/11 04:43:57;;;;;;;;;;;-0.20;91.20;;;;;;5037959;28;20507;-78
2022/12/11 04:46:23;;;;;;;;;;;-0.20;91.20;;;;;;5024555;28;19917;-78
2022/12/11 04:48:48;;;;;;;;;;;-0.20;91.30;;;;;;5047200;28;20415;-78
2022/12/11 04:51:14;;;;;;;;;;;-0.20;91.20;;;;;;5038484;28;19917;-78
2022/12/11 04:53:39;;;;;;;;;;;-0.20;91.20;;;;;;5037900;28;19932;-77
2022/12/11 04:56:06;;;;;;;;;;;-0.20;91.20;;;;;;5042479;28;19940;-77
2022/12/11 04:58:31;;;;;;;;;;;-0.20;91.20;;;;;;5020040;28;20346;-78
2022/12/11 05:00:57;;;;;;;;;;;-0.20;91.20;;;;;;5037330;28;19916;-77
2022/12/11 05:03:22;;;;;;;;;;;-0.20;91.20;;;;;;5033489;28;20027;-77
2022/12/11 05:05:51;;;;;;;;;;;-0.20;91.30;;;;;;5034801;28;19958;-77
2022/12/11 05:08:18;;;;;;;;;;;-0.20;91.30;;;;;;5033158;28;19924;-77
2022/12/11 05:10:43;;;;;;;;;;;-0.20;91.20;;;;;;5034753;28;19921;-77
2022/12/11 05:13:09;;;;;;;;;;;-0.20;91.30;;;;;;5036679;28;19917;-76
2022/12/11 05:15:37;;;;;;;;;;;-0.30;91.20;;;;;;5051027;28;19917;-77
2022/12/11 05:18:03;;;;;;;;;;;-0.30;91.20;;;;;;5037516;28;20067;-77
2022/12/11 05:20:28;;;;;;;;;;;-0.30;91.20;;;;;;5019547;28;20008;-78
2022/12/11 05:22:54;;;;;;;;;;;-0.30;91.20;;;;;;5035713;28;19917;-78
2022/12/11 05:25:19;;;;;;;;;;;-0.30;91.20;;;;;;5036925;28;19920;-76
2022/12/11 05:27:45;;;;;;;;;;;-0.40;91.20;;;;;;5052849;28;20404;-78
2022/12/11 05:30:10;;;;;;;;;;;-0.40;91.60;;;;;;5033114;28;20489;-76
2022/12/11 05:32:36;;;;;;;;;;;-0.40;91.20;;;;;;5052527;28;19951;-78
2022/12/11 05:35:02;;;;;;;;;;;-0.50;91.20;;;;;;5041312;28;20383;-77
2022/12/11 05:37:28;;;;;;;;;;;-0.50;91.20;;;;;;5034191;28;19925;-77
2022/12/11 05:39:53;;;;;;;;;;;-0.50;91.20;;;;;;5031634;28;19935;-77
2022/12/11 05:42:19;;;;;;;;;;;-0.50;91.20;;;;;;5033111;28;20039;-77
2022/12/11 05:44:44;;;;;;;;;;;-0.50;91.20;;;;;;5033878;28;19974;-78
2022/12/11 05:47:10;;;;;;;;;;;-0.50;91.30;;;;;;5036750;28;19921;-77
2022/12/11 05:49:35;;;;;;;;;;;-0.50;91.30;;;;;;5032615;28;19921;-77
2022/12/11 05:52:01;;;;;;;;;;;-0.40;91.30;;;;;;5022328;28;19925;-77
2022/12/11 05:54:26;;;;;;;;;;;-0.50;91.30;;;;;;5037405;28;20750;-77
2022/12/11 05:56:52;;;;;;;;;;;-0.50;91.30;;;;;;5030446;28;19993;-78
2022/12/11 05:59:18;;;;;;;;;;;-0.50;91.20;;;;;;5027673;28;19948;-77
2022/12/11 06:01:44;;;;;;;;;;;-0.50;91.30;;;;;;5041350;28;19928;-77
2022/12/11 06:04:10;;;;;;;;;;;-0.60;91.30;;;;;;5035297;28;19917;-78
2022/12/11 06:06:35;;;;;;;;;;;-0.60;91.30;;;;;;5034395;23;19967;-77
2022/12/11 06:09:01;;;;;;;;;;;-0.60;91.30;;;;;;5017370;28;19983;-77
2022/12/11 06:11:27;;;;;;;;;;;-0.60;91.30;;;;;;5013886;28;19927;-76
2022/12/11 06:13:52;;;;;;;;;;;-0.60;91.30;;;;;;5017056;28;19925;-76
2022/12/11 06:16:18;;;;;;;;;;;-0.60;91.30;;;;;;5025393;28;19925;-76
2022/12/11 06:18:44;;;;;;;;;;;-0.60;91.30;;;;;;5030132;28;19921;-76
2022/12/11 06:21:11;;;;;;;;;;;-0.70;91.30;;;;;;5030646;28;19921;-77
2022/12/11 06:23:36;;;;;;;;;;;-0.60;91.30;;;;;;5036588;28;20011;-76
2022/12/11 06:26:02;;;;;;;;;;;-0.60;91.30;;;;;;5034874;28;20035;-77
2022/12/11 06:28:28;;;;;;;;;;;-0.70;91.30;;;;;;5052780;28;19959;-77
2022/12/11 06:30:53;;;;;;;;;;;-0.60;91.30;;;;;;5035236;28;20058;-77
2022/12/11 06:33:19;;;;;;;;;;;-0.70;91.30;;;;;;5044783;28;19917;-76
2022/12/11 06:35:44;;;;;;;;;;;-0.70;91.30;;;;;;5038343;28;19921;-78
2022/12/11 06:38:10;;;;;;;;;;;-0.70;91.30;;;;;;5038281;28;19990;-77
2022/12/11 06:40:35;;;;;;;;;;;-0.70;91.30;;;;;;5037419;28;19977;-78
2022/12/11 06:43:01;;;;;;;;;;;-0.70;91.30;;;;;;5037894;28;19913;-78
2022/12/11 06:45:26;;;;;;;;;;;-0.70;91.30;;;;;;5037577;28;20294;-78
2022/12/11 06:47:52;;;;;;;;;;;-0.60;91.40;;;;;;5040635;28;20441;-78
2022/12/11 06:50:17;;;;;;;;;;;-0.70;91.30;;;;;;5039956;28;20387;-77
2022/12/11 06:52:43;;;;;;;;;;;-0.60;91.40;;;;;;5036821;28;19925;-78
2022/12/11 06:55:08;;;;;;;;;;;-0.70;91.30;;;;;;5032784;28;19924;-77
2022/12/11 06:57:34;;;;;;;;;;;-0.60;91.40;;;;;;5036706;28;20351;-79
2022/12/11 06:59:59;;;;;;;;;;;-0.60;91.40;;;;;;5036145;28;19925;-79
2022/12/11 07:02:25;;;;;;;;;;;-0.60;91.40;;;;;;5041977;28;19917;-78
2022/12/11 07:04:50;;;;;;;;;;;-0.60;91.40;;;;;;5042666;28;19916;-79
2022/12/11 07:07:16;;;;;;;;;;;-0.60;91.40;;;;;;5041137;28;19952;-80
2022/12/11 07:09:42;;;;;;;;;;;-0.60;91.40;;;;;;5034481;28;19963;-79
2022/12/11 07:12:08;;;;;;;;;;;-0.60;91.40;;;;;;5041287;28;19920;-78
2022/12/11 07:14:33;;;;;;;;;;;-0.60;91.40;;;;;;5035407;28;19921;-78
2022/12/11 07:16:59;;;;;;;;;;;-0.60;91.40;;;;;;5038758;28;19917;-78
2022/12/11 07:19:24;;;;;;;;;;;-0.50;91.40;;;;;;5037077;28;19925;-79
2022/12/11 07:21:50;;;;;;;;;;;-0.50;91.40;;;;;;5022308;28;21527;-79
2022/12/11 07:24:15;;;;;;;;;;;-0.50;91.40;;;;;;5037722;28;19916;-79
2022/12/11 07:26:41;;;;;;;;;;;-0.50;91.40;;;;;;5041149;28;20039;-78
2022/12/11 07:29:06;;;;;;;;;;;-0.50;91.40;;;;;;5038890;28;19924;-77
2022/12/11 07:31:32;;;;;;;;;;;-0.50;91.40;;;;;;5042156;28;20387;-78
2022/12/11 07:34:02;;;;;;;;;;;-0.40;91.40;;;;;;5037627;28;19917;-78
2022/12/11 07:36:27;;;;;;;;;;;-0.50;91.40;;;;;;5033940;28;19921;-78
2022/12/11 07:38:53;;;;;;;;;;;-0.40;91.40;;;;;;5037645;28;19924;-78
2022/12/11 07:41:18;;;;;;;;;;;-0.40;91.40;;;;;;5039653;28;19932;-78
2022/12/11 07:43:44;;;;;;;;;;;-0.40;91.40;;;;;;5043045;28;20391;-78
2022/12/11 07:46:10;;;;;;;;;;;-0.40;91.30;;;;;;5043426;28;19923;-77
2022/12/11 07:48:36;;;;;;;;;;;-0.40;91.30;;;;;;5040002;28;19921;-79
2022/12/11 07:51:08;;;;;;;;;;;-0.30;91.40;;;;;;5033387;28;19925;-78
2022/12/11 07:53:33;;;;;;;;;;;-0.30;91.40;;;;;;5043269;28;20008;-78
2022/12/11 07:55:59;;;;;;;;;;;-0.30;91.40;;;;;;5038061;28;20004;-78
2022/12/11 07:58:24;;;;;;;;;;;-0.30;91.40;;;;;;5038164;28;20417;-78
2022/12/11 08:00:50;;;;;;;;;;;-0.30;91.40;;;;;;5039286;28;19924;-78
2022/12/11 08:03:16;;;;;;;;;;;-0.30;91.40;;;;;;5036964;28;19924;-78
2022/12/11 08:05:46;;;;;;;;;;;-0.20;91.40;;;;;;5035780;28;20003;-78
2022/12/11 08:08:12;;;;;;;;;;;-0.20;91.40;;;;;;5024728;28;19924;-78
2022/12/11 08:10:37;;;;;;;;;;;-0.20;91.40;;;;;;5030790;28;19916;-79
2022/12/11 08:13:04;;;;;;;;;;;-0.20;91.40;;;;;;5045569;28;19920;-78
2022/12/11 08:15:29;;;;;;;;;;;-0.20;91.30;;;;;;5038416;28;19925;-78
2022/12/11 08:17:55;;;;;;;;;;;-0.20;91.30;;;;;;5056521;28;19917;-78
2022/12/11 08:20:20;;;;;;;;;;;-0.20;91.30;;;;;;5043191;28;20550;-78
2022/12/11 08:22:46;;;;;;;;;;;-0.20;91.30;;;;;;5043275;28;20421;-78
2022/12/11 08:25:11;;;;;;;;;;;-0.20;91.30;;;;;;5045318;28;19932;-78
2022/12/11 08:27:37;;;;;;;;;;;-0.20;91.30;;;;;;5043253;28;19927;-78
2022/12/11 08:30:02;;;;;;;;;;;-0.10;91.40;;;;;;5057441;28;19917;-78
2022/12/11 08:32:28;;;;;;;;;;;-0.10;91.40;;;;;;5056220;28;21769;-78
2022/12/11 08:34:53;;;;;;;;;;;-0.10;91.30;;;;;;5058240;28;20093;-79
2022/12/11 08:37:19;;;;;;;;;;;-0.10;91.30;;;;;;5045944;28;20350;-79
2022/12/11 08:39:45;;;;;;;;;;;-0.10;91.30;;;;;;5060493;28;20587;-78
2022/12/11 08:42:11;;;;;;;;;;;-0.10;91.30;;;;;;5043438;28;19932;-78
2022/12/11 08:44:36;;;;;;;;;;;-0.10;91.30;;;;;;5026656;28;19924;-78
2022/12/11 08:47:02;;;;;;;;;;;0.00;91.40;;;;;;5050116;28;19917;-78
2022/12/11 08:49:27;;;;;;;;;;;-0.10;91.30;;;;;;5060296;28;19963;-79
2022/12/11 08:51:53;;;;;;;;;;;0.00;91.30;;;;;;5042920;28;19920;-79
2022/12/11 08:54:19;;;;;;;;;;;0.00;91.30;;;;;;5054948;28;20023;-79
2022/12/11 08:56:44;;;;;;;;;;;0.00;91.30;;;;;;5057881;28;19923;-78
2022/12/11 08:59:10;;;;;;;;;;;0.00;91.30;;;;;;5058359;28;19924;-79
2022/12/11 09:01:35;;;;;;;;;;;0.00;91.30;;;;;;5060187;28;19966;-78
2022/12/11 09:04:01;;;;;;;;;;;0.00;91.30;;;;;;5058767;28;19921;-78
2022/12/11 09:06:27;;;;;;;;;;;0.00;91.30;;;;;;5057598;28;19985;-78
2022/12/11 09:08:52;;;;;;;;;;;0.00;91.30;;;;;;5060258;28;19985;-77
2022/12/11 09:11:28;;;;;;;;;;;0.10;91.30;;;;;;5056366;28;21127;-77
2022/12/11 09:13:53;;;;;;;;;;;0.10;91.30;;;;;;5023264;28;19925;-79
2022/12/11 09:16:19;;;;;;;;;;;0.10;91.30;;;;;;5044688;28;20035;-79
2022/12/11 09:18:46;;;;;;;;;;;0.10;91.30;;;;;;5045787;28;19933;-78
2022/12/11 09:21:13;;;;;;;;;;;0.10;91.30;;;;;;5061813;28;19927;-80
2022/12/11 09:23:39;;;;;;;;;;;0.10;91.30;;;;;;5040459;28;19920;-79
2022/12/11 09:26:05;;;;;;;;;;;0.20;91.30;;;;;;5037817;28;19995;-79
2022/12/11 09:28:30;;;;;;;;;;;0.20;91.20;;;;;;5037764;28;19921;-79
2022/12/11 09:30:56;;;;;;;;;;;0.20;91.20;;;;;;5040669;28;20004;-79
2022/12/11 09:33:21;;;;;;;;;;;0.20;91.20;;;;;;5057568;28;19916;-79
2022/12/11 09:35:55;;;;;;;;;;;0.20;91.20;;;;;;5055037;28;19917;-80
2022/12/11 09:38:21;;;;;;;;;;;0.20;91.20;;;;;;5033888;28;19974;-79
2022/12/11 09:40:46;;;;;;;;;;;0.20;91.20;;;;;;5041769;28;19920;-80
2022/12/11 09:43:30;;;;;;;;;;;0.20;91.20;;;;;;5056729;28;19917;-80
2022/12/11 09:45:55;;;;;;;;;;;0.20;91.20;;;;;;5024710;28;19916;-78
2022/12/11 09:48:21;;;;;;;;;;;0.20;91.20;;;;;;5040315;28;19916;-77
2022/12/11 09:50:47;;;;;;;;;;;0.30;91.20;;;;;;5038084;28;20050;-78
2022/12/11 09:53:31;;;;;;;;;;;0.30;91.20;;;;;;5037744;28;20008;-78
2022/12/11 09:56:11;;;;;;;;;;;0.30;91.20;;;;;;5036926;28;19976;-78
2022/12/11 09:58:55;;;;;;;;;;;0.30;91.20;;;;;;5039617;28;19931;-78
2022/12/11 10:01:33;;;;;;;;;;;0.40;91.20;;;;;;5055097;28;19920;-76
2022/12/11 10:04:11;;;;;;;;;;;0.40;91.20;;;;;;5039379;28;20409;-78
2022/12/11 10:06:41;;;;;;;;;;;0.40;91.20;;;;;;5054295;28;19954;-78
2022/12/11 10:09:20;;;;;;;;;;;0.40;91.20;;;;;;5037544;28;20158;-79
2022/12/11 10:11:51;;;;;;;;;;;0.50;91.20;;;;;;5021502;28;19958;-80
2022/12/11 10:14:25;;;;;;;;;;;0.50;91.20;;;;;;5036553;28;19917;-78
2022/12/11 10:16:51;;;;;;;;;;;0.50;91.20;;;;;;5039192;28;20039;-78
2022/12/11 10:19:18;;;;;;;;;;;0.60;91.20;;;;;;5035384;28;19924;-79
2022/12/11 10:21:43;;;;;;;;;;;0.60;91.20;;;;;;5026160;28;19988;-78
2022/12/11 10:24:11;;;;;;;;;;;0.60;91.20;;;;;;5019597;28;19971;-76
2022/12/11 10:26:36;;;;;;;;;;;0.60;91.20;;;;;;5039648;28;19966;-79
2022/12/11 10:29:02;;;;;;;;;;;0.60;91.20;;;;;;5039225;28;19913;-79
2022/12/11 10:31:38;;;;;;;;;;;0.70;91.20;;;;;;5036950;28;19935;-78
2022/12/11 10:34:11;;;;;;;;;;;0.70;91.10;;;;;;5025668;28;19916;-79
2022/12/11 10:36:36;;;;;;;;;;;0.70;91.10;;;;;;5018913;28;19943;-78
2022/12/11 10:39:02;;;;;;;;;;;0.70;91.10;;;;;;5035411;28;19928;-79
2022/12/11 10:41:34;;;;;;;;;;;0.70;91.10;;;;;;5053894;28;19960;-79
2022/12/11 10:44:00;;;;;;;;;;;0.70;91.10;;;;;;5057077;28;20678;-78
2022/12/11 10:46:27;;;;;;;;;;;0.80;91.10;;;;;;5036626;28;20618;-78
2022/12/11 10:48:53;;;;;;;;;;;0.80;91.10;;;;;;5037762;28;20367;-79
2022/12/11 10:51:19;;;;;;;;;;;0.80;91.10;;;;;;5035629;28;19928;-78
2022/12/11 10:53:54;;;;;;;;;;;0.90;91.10;;;;;;5021191;28;19956;-81
2022/12/11 10:56:24;;;;;;;;;;;0.90;91.10;;;;;;5049051;28;19921;-75
2022/12/11 10:58:49;;;;;;;;;;;0.90;91.10;;;;;;5054193;28;19929;-77
2022/12/11 11:01:15;;;;;;;;;;;0.90;91.10;;;;;;5050357;28;19956;-77
2022/12/11 11:03:50;;;;;;;;;;;1.00;91.10;;;;;;5059721;28;20334;-78
2022/12/11 11:06:16;;;;;;;;;;;1.00;91.10;;;;;;5036166;28;19997;-78
2022/12/11 11:08:45;;;;;;;;;;;1.00;91.10;;;;;;5040852;28;19924;-78
2022/12/11 11:11:20;;;;;;;;;;;1.00;91.10;;;;;;5034714;28;19916;-77
2022/12/11 11:13:45;;;;;;;;;;;1.10;91.00;;;;;;5036277;28;19955;-77
2022/12/11 11:16:11;;;;;;;;;;;1.10;91.00;;;;;;5034263;28;20342;-78
2022/12/11 11:18:36;;;;;;;;;;;1.20;91.00;;;;;;5017535;28;20387;-77
2022/12/11 11:21:02;;;;;;;;;;;1.20;91.00;;;;;;5037153;28;20387;-77
2022/12/11 11:23:27;;;;;;;;;;;1.30;91.00;;;;;;5031043;28;20478;-77
2022/12/11 11:25:54;;;;;;;;;;;1.30;91.00;;;;;;5036544;28;20015;-77
2022/12/11 11:28:23;;;;;;;;;;;1.30;91.00;;;;;;5035697;28;22064;-76
2022/12/11 11:30:56;;;;;;;;;;;1.30;91.00;;;;;;5039735;28;19924;-77
2022/12/11 11:33:21;;;;;;;;;;;1.30;91.00;;;;;;5034515;28;19987;-78
2022/12/11 11:35:50;;;;;;;;;;;1.40;91.00;;;;;;5051006;28;19925;-78
2022/12/11 11:38:20;;;;;;;;;;;1.40;91.00;;;;;;5019220;28;20001;-78
2022/12/11 11:40:47;;;;;;;;;;;1.50;91.00;;;;;;5022229;28;20020;-79
2022/12/11 11:43:18;;;;;;;;;;;1.50;90.90;;;;;;5029892;28;19936;-78
2022/12/11 11:45:54;;;;;;;;;;;1.50;90.90;;;;;;5031200;28;19924;-77
2022/12/11 11:48:35;;;;;;;;;;;1.50;90.90;;;;;;5034692;28;20004;-77
2022/12/11 11:51:03;;;;;;;;;;;1.50;90.90;;;;;;5053270;28;19965;-77
2022/12/11 11:53:36;;;;;;;;;;;1.60;90.90;;;;;;5039206;28;19924;-77
2022/12/11 11:56:36;;;;;;;;;;;1.50;90.90;;;;;;5021123;28;19924;-74
2022/12/11 11:59:05;;;;;;;;;;;1.60;90.90;;;;;;4981580;28;19956;-75
2022/12/11 12:01:31;;;;;;;;;;;1.60;90.90;;;;;;4980931;28;19931;-75
2022/12/11 12:03:56;;;;;;;;;;;1.60;90.90;;;;;;4966131;28;19922;-76
2022/12/11 12:06:34;;;;;;;;;;;1.60;90.90;;;;;;4981075;28;19936;-77
2022/12/11 12:09:15;;;;;;;;;;;1.60;90.90;;;;;;4964757;28;19930;-77
2022/12/11 12:11:41;;;;;;;;;;;1.70;90.90;;;;;;4990567;28;20069;-76
2022/12/11 12:14:07;;;;;;;;;;;1.70;90.80;;;;;;4978573;28;19948;-77
2022/12/11 12:16:47;;;;;;;;;;;1.70;90.80;;;;;;4993852;28;20728;-77
2022/12/11 12:19:16;;;;;;;;;;;1.70;90.80;;;;;;4992892;28;19977;-77
2022/12/11 12:21:43;;;;;;;;;;;1.70;90.90;;;;;;4977692;28;20093;-76
2022/12/11 12:24:09;;;;;;;;;;;1.80;90.80;;;;;;4964505;28;20300;-75
2022/12/11 12:26:35;;;;;;;;;;;1.80;90.80;;;;;;4996484;28;19925;-77
2022/12/11 12:29:12;;;;;;;;;;;1.80;90.80;;;;;;4974469;28;19917;-77
2022/12/11 12:31:57;;;;;;;;;;;1.80;90.80;;;;;;4997376;28;20426;-78
2022/12/11 12:34:31;;;;;;;;;;;1.90;90.80;;;;;;5035901;28;19974;-77
2022/12/11 12:37:12;;;;;;;;;;;1.90;90.80;;;;;;5038082;28;20449;-78
2022/12/11 12:39:43;;;;;;;;;;;2.00;90.80;;;;;;5018051;28;19951;-79
2022/12/11 12:42:47;;;;;;;;;;;2.00;90.80;;;;;;5041839;28;19928;-76
2022/12/11 12:45:12;;;;;;;;;;;2.10;90.80;;;;;;5019189;28;19917;-79
2022/12/11 12:47:38;;;;;;;;;;;2.10;90.80;;;;;;5023025;28;20012;-78
2022/12/11 12:50:06;;;;;;;;;;;2.20;90.80;;;;;;5022316;28;19917;-79
2022/12/11 12:52:35;;;;;;;;;;;2.20;90.80;;;;;;5039688;28;19975;-77
2022/12/11 12:55:15;;;;;;;;;;;2.20;90.80;;;;;;5042357;28;20482;-79
2022/12/11 12:57:41;;;;;;;;;;;2.20;90.70;;;;;;5026064;28;19936;-78
2022/12/11 13:00:07;;;;;;;;;;;2.30;90.70;;;;;;5045808;28;20019;-79
2022/12/11 13:02:33;;;;;;;;;;;2.30;91.10;;;;;;5027039;28;19928;-78
2022/12/11 13:04:59;;;;;;;;;;;2.30;90.70;;;;;;5029435;28;19934;-79
2022/12/11 13:07:28;;;;;;;;;;;2.30;90.70;;;;;;5032920;28;20007;-78
2022/12/11 13:09:58;;;;;;;;;;;2.30;90.70;;;;;;5019697;28;19921;-77
2022/12/11 13:12:30;;;;;;;;;;;2.40;90.70;;;;;;5031064;28;19927;-78
2022/12/11 13:14:56;;;;;;;;;;;2.40;90.70;;;;;;5035950;28;19927;-79
2022/12/11 13:17:24;;;;;;;;;;;2.40;90.70;;;;;;5031442;28;19925;-77
2022/12/11 13:19:51;;;;;;;;;;;2.40;90.70;;;;;;5036602;28;20449;-78
2022/12/11 13:22:21;;;;;;;;;;;2.40;90.70;;;;;;5036390;28;19937;-79
2022/12/11 13:24:52;;;;;;;;;;;2.40;90.70;;;;;;5019778;28;20010;-79
2022/12/11 13:27:24;;;;;;;;;;;2.40;90.70;;;;;;5034867;28;20359;-77
2022/12/11 13:29:50;;;;;;;;;;;2.40;90.70;;;;;;5035177;28;19916;-77
2022/12/11 13:32:15;;;;;;;;;;;2.40;90.70;;;;;;5033444;28;20310;-78
2022/12/11 13:34:41;;;;;;;;;;;2.40;90.60;;;;;;5035777;28;19921;-78
2022/12/11 13:37:26;;;;;;;;;;;2.40;90.60;;;;;;5037164;28;19932;-76
2022/12/11 13:39:52;;;;;;;;;;;2.40;90.60;;;;;;5034050;28;19980;-78
2022/12/11 13:42:55;;;;;;;;;;;2.40;90.60;;;;;;5018109;28;19956;-79
2022/12/11 13:45:25;;;;;;;;;;;2.40;90.60;;;;;;5016466;28;19953;-77
2022/12/11 13:47:51;;;;;;;;;;;2.40;90.60;;;;;;5000036;28;19917;-79
2022/12/11 13:50:19;;;;;;;;;;;2.40;90.60;;;;;;4999550;28;19920;-79
2022/12/11 13:52:51;;;;;;;;;;;2.40;90.60;;;;;;5001239;28;19917;-78
2022/12/11 13:55:20;;;;;;;;;;;2.40;90.60;;;;;;4999746;28;19971;-78
2022/12/11 13:57:46;;;;;;;;;;;2.40;90.60;;;;;;5001488;28;20673;-78
2022/12/11 14:00:18;;;;;;;;;;;2.40;90.60;;;;;;4986313;28;20012;-79
2022/12/11 14:02:44;;;;;;;;;;;2.40;90.60;;;;;;4982323;28;19917;-78
2022/12/11 14:05:09;;;;;;;;;;;2.40;90.60;;;;;;4999220;28;19917;-76
2022/12/11 14:07:40;;;;;;;;;;;2.40;90.60;;;;;;5017103;28;19925;-78
2022/12/11 14:10:14;;;;;;;;;;;2.30;90.50;;;;;;5002406;28;19917;-79
2022/12/11 14:12:44;;;;;;;;;;;2.40;90.60;;;;;;5017540;28;19925;-78
2022/12/11 14:15:10;;;;;;;;;;;2.40;90.60;;;;;;4998442;28;19925;-76
2022/12/11 14:17:36;;;;;;;;;;;2.30;90.60;;;;;;5017983;28;19940;-80
2022/12/11 14:20:02;;;;;;;;;;;2.30;90.60;;;;;;5021726;28;20391;-79
2022/12/11 14:22:28;;;;;;;;;;;2.30;90.60;;;;;;5031958;28;20522;-76
2022/12/11 14:24:54;;;;;;;;;;;2.30;90.60;;;;;;5035420;28;20703;-78
2022/12/11 14:27:20;;;;;;;;;;;2.30;90.50;;;;;;5018699;28;19917;-76
2022/12/11 14:29:46;;;;;;;;;;;2.30;90.60;;;;;;5039023;28;20367;-78
2022/12/11 14:32:12;;;;;;;;;;;2.20;90.50;;;;;;5034236;28;19928;-79
2022/12/11 14:34:39;;;;;;;;;;;2.20;90.60;;;;;;5031827;28;20297;-77
2022/12/11 14:37:05;;;;;;;;;;;2.20;90.60;;;;;;5036018;28;20371;-78
2022/12/11 14:39:32;;;;;;;;;;;2.20;90.50;;;;;;5019119;28;19929;-79
2022/12/11 14:41:58;;;;;;;;;;;2.20;90.60;;;;;;5037874;28;19917;-79